Time;durP1;ratioP1;P1;durP2;ratioP2;P2;SDS_P1;SDS_P2;PMS_P1;PMS_P2;Temp;Humidity;BMP_temperature;BMP_pressure;BME280_temperature;BME280_humidity;BME280_pressure;Samples;Min_cycle;Max_cycle;Signal;HPM_P1;HPM_P2
2022/04/21 00:00:35;;;;;;;9.88;5.95;;;5.10;47.00;;;;;;5031628;28;20190;-63
2022/04/21 00:03:04;;;;;;;9.10;6.15;;;5.10;47.30;;;;;;5032074;28;20317;-63
2022/04/21 00:05:31;;;;;;;10.85;6.53;;;5.10;47.30;;;;;;5031486;28;20243;-62
2022/04/21 00:07:59;;;;;;;8.77;6.07;;;5.00;47.30;;;;;;5031985;28;20553;-63
2022/04/21 00:10:27;;;;;;;7.47;5.90;;;4.90;47.90;;;;;;5031718;28;20182;-62
2022/04/21 00:12:55;;;;;;;7.95;5.63;;;4.80;47.70;;;;;;5032019;28;20203;-62
2022/04/21 00:15:22;;;;;;;12.23;6.18;;;4.80;47.70;;;;;;5031515;28;20274;-63
2022/04/21 00:17:51;;;;;;;8.90;5.95;;;4.80;47.60;;;;;;5031912;28;20229;-63
2022/04/21 00:20:18;;;;;;;6.93;5.32;;;4.80;47.90;;;;;;5031151;28;20187;-63
2022/04/21 00:25:30;;;;;;;8.85;5.25;;;4.70;48.20;;;;;;5031588;28;20198;-64
2022/04/21 00:27:58;;;;;;;8.30;5.43;;;4.70;48.40;;;;;;5031344;28;20265;-63
2022/04/21 00:30:25;;;;;;;9.63;5.78;;;4.60;48.40;;;;;;5033359;28;20560;-63
2022/04/21 00:32:54;;;;;;;7.68;5.15;;;4.60;48.00;;;;;;5035501;28;20221;-63
2022/04/21 00:35:21;;;;;;;7.15;4.82;;;4.60;48.20;;;;;;5035743;28;20198;-63
2022/04/21 00:37:51;;;;;;;8.68;6.13;;;4.60;48.50;;;;;;5035317;28;20721;-63
2022/04/21 00:40:19;;;;;;;7.70;5.35;;;4.60;48.80;;;;;;5035423;28;20237;-63
2022/04/21 00:42:47;;;;;;;7.28;5.35;;;4.60;48.90;;;;;;5034681;28;20233;-63
2022/04/21 00:45:15;;;;;;;8.90;5.80;;;4.60;48.80;;;;;;5035626;28;20191;-63
2022/04/21 00:47:45;;;;;;;7.60;5.68;;;4.50;49.30;;;;;;5035438;28;20214;-63
2022/04/21 00:50:16;;;;;;;5.85;4.80;;;4.50;48.90;;;;;;5015693;28;20657;-63
2022/04/21 00:52:44;;;;;;;8.15;5.35;;;4.40;48.90;;;;;;5034852;28;20653;-63
2022/04/21 00:55:12;;;;;;;7.47;5.10;;;4.30;48.80;;;;;;5035453;28;20233;-63
2022/04/21 00:57:41;;;;;;;7.00;4.50;;;4.30;48.40;;;;;;5035224;28;20585;-63
2022/04/21 01:00:10;;;;;;;7.13;4.80;;;4.30;48.60;;;;;;5035197;28;20736;-62
2022/04/21 01:02:52;;;;;;;7.55;5.15;;;4.20;48.60;;;;;;5034710;28;20764;-62
2022/04/21 01:05:29;;;;;;;9.43;5.45;;;4.10;48.80;;;;;;5035257;28;20230;-62
2022/04/21 01:07:57;;;;;;;6.15;4.78;;;4.00;49.40;;;;;;5034646;28;20187;-62
2022/04/21 01:10:26;;;;;;;8.98;6.20;;;3.90;49.40;;;;;;5035090;28;20650;-62
2022/04/21 01:12:54;;;;;;;8.40;4.68;;;3.80;49.50;;;;;;5034704;28;20184;-62
2022/04/21 01:15:21;;;;;;;6.45;4.90;;;3.80;49.50;;;;;;5034473;28;20195;-64
2022/04/21 01:17:48;;;;;;;8.82;5.60;;;3.70;50.60;;;;;;5034720;28;20250;-63
2022/04/21 01:20:18;;;;;;;8.63;4.95;;;3.70;51.30;;;;;;5034627;28;20270;-65
2022/04/21 01:22:46;;;;;;;6.68;5.18;;;3.60;51.00;;;;;;5034513;28;20222;-62
2022/04/21 01:25:13;;;;;;;7.90;5.35;;;3.60;51.10;;;;;;5034487;28;20187;-64
2022/04/21 01:27:42;;;;;;;6.22;5.63;;;3.50;51.30;;;;;;5034945;28;20201;-62
2022/04/21 01:30:11;;;;;;;7.28;5.40;;;3.50;51.10;;;;;;5033973;28;20194;-62
2022/04/21 01:32:42;;;;;;;8.30;5.60;;;3.50;51.00;;;;;;5035021;28;20223;-62
2022/04/21 01:35:10;;;;;;;11.80;7.45;;;3.50;51.10;;;;;;5034486;28;20218;-62
2022/04/21 01:43:08;;;;;;;10.50;5.95;;;3.40;51.50;;;;;;5034817;28;20221;-62
2022/04/21 01:45:36;;;;;;;7.03;5.47;;;3.30;51.80;;;;;;5033820;28;20225;-62
2022/04/21 01:48:04;;;;;;;9.13;4.80;;;3.30;52.40;;;;;;5033926;28;20261;-62
2022/04/21 01:50:31;;;;;;;7.45;5.47;;;3.30;52.50;;;;;;5034398;28;20200;-63
2022/04/21 01:53:00;;;;;;;7.78;4.95;;;3.30;52.70;;;;;;5033311;28;20226;-62
2022/04/21 01:55:27;;;;;;;11.00;6.10;;;3.30;52.20;;;;;;5033695;28;20210;-63
2022/04/21 01:57:55;;;;;;;11.13;5.63;;;3.20;51.90;;;;;;5034221;28;20274;-62
2022/04/21 02:00:22;;;;;;;6.75;5.03;;;3.30;52.20;;;;;;5034106;28;20278;-63
2022/04/21 02:02:49;;;;;;;8.38;6.10;;;3.30;52.60;;;;;;5033915;28;20226;-63
2022/04/21 02:05:17;;;;;;;6.35;4.70;;;3.30;52.50;;;;;;5033874;28;20194;-62
2022/04/21 02:07:45;;;;;;;9.35;6.28;;;3.30;52.80;;;;;;5033612;28;20197;-63
2022/04/21 02:10:15;;;;;;;9.85;6.53;;;3.20;52.90;;;;;;5033800;28;20241;-62
2022/04/21 02:12:42;;;;;;;8.85;5.55;;;3.10;53.20;;;;;;5033653;28;20237;-63
2022/04/21 02:15:10;;;;;;;8.85;6.07;;;3.10;53.30;;;;;;5033924;28;20295;-63
2022/04/21 02:17:37;;;;;;;8.50;6.38;;;3.10;53.40;;;;;;5033531;28;20261;-62
2022/04/21 02:20:07;;;;;;;7.47;5.75;;;3.00;53.50;;;;;;5033338;28;20195;-62
2022/04/21 02:22:35;;;;;;;8.18;5.93;;;3.00;53.80;;;;;;5033388;28;20253;-62
2022/04/21 02:25:03;;;;;;;9.15;6.28;;;2.90;53.80;;;;;;5033121;28;20187;-62
2022/04/21 02:27:31;;;;;;;9.00;6.43;;;2.80;54.10;;;;;;5033625;28;20214;-62
2022/04/21 02:29:59;;;;;;;9.20;6.70;;;2.80;54.30;;;;;;5033234;28;20294;-62
2022/04/21 02:32:26;;;;;;;8.73;5.72;;;2.90;54.30;;;;;;5033677;28;20195;-62
2022/04/21 02:34:54;;;;;;;10.52;7.63;;;3.00;53.80;;;;;;5033302;28;20187;-62
2022/04/21 02:37:22;;;;;;;9.60;7.05;;;3.00;53.40;;;;;;5033579;28;20252;-63
2022/04/21 02:39:49;;;;;;;11.70;6.93;;;3.00;53.60;;;;;;5032945;28;20266;-63
2022/04/21 02:42:16;;;;;;;9.20;6.75;;;3.00;54.10;;;;;;5033366;28;20629;-62
2022/04/21 02:44:45;;;;;;;9.60;6.93;;;2.90;53.90;;;;;;5033012;28;20211;-62
2022/04/21 02:47:12;;;;;;;10.80;7.85;;;2.90;54.20;;;;;;5033591;28;20198;-63
2022/04/21 02:49:45;;;;;;;13.07;8.73;;;2.80;54.40;;;;;;5033336;28;20249;-62
2022/04/21 02:52:13;;;;;;;10.15;7.70;;;2.70;55.00;;;;;;5033115;28;20234;-62
2022/04/21 02:57:41;;;;;;;9.30;6.97;;;2.60;55.50;;;;;;4991995;28;20192;-62
2022/04/21 03:00:10;;;;;;;10.77;6.60;;;2.50;55.30;;;;;;4991325;28;20192;-63
2022/04/21 03:02:37;;;;;;;12.05;6.85;;;2.50;55.30;;;;;;5001232;28;20274;-62
2022/04/21 03:05:05;;;;;;;9.43;7.35;;;2.60;55.40;;;;;;5030879;28;20741;-62
2022/04/21 03:07:33;;;;;;;12.02;6.93;;;2.60;55.60;;;;;;5032828;28;20206;-63
2022/04/21 03:10:00;;;;;;;9.02;7.15;;;2.60;55.40;;;;;;5032522;28;20316;-62
2022/04/21 03:12:28;;;;;;;9.80;7.22;;;2.60;55.30;;;;;;5032922;28;20191;-62
2022/04/21 03:14:57;;;;;;;10.57;6.75;;;2.60;55.00;;;;;;5032168;28;20638;-62
2022/04/21 03:17:25;;;;;;;6.60;5.28;;;2.60;55.10;;;;;;5032849;28;20187;-62
2022/04/21 03:19:53;;;;;;;7.90;5.95;;;2.70;55.80;;;;;;5032579;28;20202;-62
2022/04/21 03:25:06;;;;;;;6.97;5.43;;;2.50;55.30;;;;;;5032237;28;20681;-62
2022/04/21 03:27:35;;;;;;;9.07;6.40;;;2.50;55.60;;;;;;5032607;28;20260;-63
2022/04/21 03:30:02;;;;;;;8.50;6.25;;;2.40;55.20;;;;;;5032490;28;20187;-62
2022/04/21 03:32:31;;;;;;;9.43;6.72;;;2.40;55.40;;;;;;5032356;28;20191;-63
2022/04/21 03:34:59;;;;;;;10.20;5.75;;;2.40;55.50;;;;;;5031660;28;20187;-62
2022/04/21 03:37:26;;;;;;;8.80;6.20;;;2.40;55.40;;;;;;5032150;28;20202;-63
2022/04/21 03:39:53;;;;;;;10.38;6.03;;;2.50;55.50;;;;;;5031914;28;20202;-63
2022/04/21 03:42:25;;;;;;;8.85;5.95;;;2.40;54.90;;;;;;5032225;28;20720;-63
2022/04/21 03:44:52;;;;;;;10.68;6.65;;;2.40;54.70;;;;;;5031667;28;20215;-63
2022/04/21 03:47:20;;;;;;;12.05;6.72;;;2.40;55.10;;;;;;5031840;28;20198;-63
2022/04/21 03:49:49;;;;;;;9.80;6.82;;;2.40;55.70;;;;;;5032342;28;20191;-63
2022/04/21 03:52:17;;;;;;;12.85;6.85;;;2.40;55.80;;;;;;5031535;28;20195;-63
2022/04/21 03:54:44;;;;;;;8.90;5.97;;;2.40;56.10;;;;;;5032069;28;20285;-63
2022/04/21 03:57:11;;;;;;;8.68;6.43;;;2.40;56.10;;;;;;5031971;28;20190;-63
2022/04/21 03:59:39;;;;;;;8.20;6.10;;;2.50;55.90;;;;;;5032168;28;20257;-63
2022/04/21 04:02:06;;;;;;;7.13;5.65;;;2.50;55.40;;;;;;5031805;28;20281;-62
2022/04/21 04:04:34;;;;;;;7.60;6.05;;;2.50;55.10;;;;;;5031428;28;20626;-62
2022/04/21 04:12:34;;;;;;;9.52;6.15;;;2.20;54.00;;;;;;5032161;28;20603;-62
2022/04/21 04:15:02;;;;;;;9.63;6.68;;;2.20;54.40;;;;;;5032124;28;20554;-62
2022/04/21 04:17:30;;;;;;;10.07;5.88;;;2.10;54.50;;;;;;5032407;28;20209;-62
2022/04/21 04:19:57;;;;;;;8.30;5.40;;;2.10;54.40;;;;;;5031885;28;20187;-62
2022/04/21 04:22:25;;;;;;;8.57;6.43;;;2.10;54.30;;;;;;5032081;28;20195;-62
2022/04/21 04:24:54;;;;;;;8.70;6.43;;;2.10;53.50;;;;;;5031781;28;20272;-62
2022/04/21 04:27:22;;;;;;;34.22;15.57;;;2.00;53.50;;;;;;5032349;28;20191;-62
2022/04/21 04:29:49;;;;;;;35.38;14.98;;;2.00;53.80;;;;;;5031617;28;20198;-62
2022/04/21 04:32:16;;;;;;;18.08;10.32;;;2.00;54.20;;;;;;5032223;28;20198;-62
2022/04/21 04:34:44;;;;;;;11.07;7.70;;;2.00;54.60;;;;;;5031432;28;20222;-62
2022/04/21 04:37:11;;;;;;;14.05;8.82;;;2.00;55.50;;;;;;5032059;28;20195;-63
2022/04/21 04:39:39;;;;;;;10.35;6.20;;;2.00;55.80;;;;;;5031648;28;20195;-62
2022/04/21 04:42:18;;;;;;;12.48;6.38;;;2.00;56.40;;;;;;5031805;28;20277;-62
2022/04/21 04:44:45;;;;;;;9.32;6.63;;;2.00;56.40;;;;;;5028245;28;20305;-63
2022/04/21 04:47:12;;;;;;;9.20;6.20;;;2.00;55.90;;;;;;5032069;28;20195;-63
2022/04/21 04:49:39;;;;;;;8.95;6.72;;;2.10;55.60;;;;;;5031745;28;20188;-62
2022/04/21 04:52:07;;;;;;;9.23;6.10;;;2.10;55.60;;;;;;5032076;28;20195;-62
2022/04/21 04:54:34;;;;;;;12.02;8.25;;;2.10;55.70;;;;;;5031565;28;20264;-63
2022/04/21 04:57:03;;;;;;;10.45;7.63;;;2.10;55.60;;;;;;5031690;28;20654;-62
2022/04/21 04:59:29;;;;;;;10.30;6.75;;;2.10;56.50;;;;;;5031657;28;20215;-63
2022/04/21 05:01:57;;;;;;;7.70;5.70;;;2.10;56.90;;;;;;5031810;28;20191;-63
2022/04/21 05:04:26;;;;;;;10.63;6.10;;;2.20;57.30;;;;;;5031334;28;20254;-62
2022/04/21 05:06:57;;;;;;;8.70;6.65;;;2.30;57.70;;;;;;5031786;28;20575;-62
2022/04/21 05:09:25;;;;;;;10.50;6.63;;;2.30;57.50;;;;;;5031568;28;20202;-62
2022/04/21 05:11:53;;;;;;;10.32;7.07;;;2.30;58.20;;;;;;5030781;28;20191;-62
2022/04/21 05:14:23;;;;;;;12.20;7.47;;;2.40;57.80;;;;;;5031312;28;20199;-63
2022/04/21 05:16:51;;;;;;;10.55;6.57;;;2.30;58.30;;;;;;5034005;28;20282;-62
2022/04/21 05:19:20;;;;;;;9.93;6.63;;;2.10;58.60;;;;;;5034906;28;20187;-63
2022/04/21 05:21:48;;;;;;;9.93;5.70;;;2.20;59.00;;;;;;5035381;28;20195;-62
2022/04/21 05:24:16;;;;;;;8.18;5.97;;;2.20;59.20;;;;;;5034789;28;20233;-63
2022/04/21 05:26:45;;;;;;;11.90;6.68;;;2.30;59.50;;;;;;5035569;28;20708;-62
2022/04/21 05:32:00;;;;;;;10.65;6.45;;;2.60;59.40;;;;;;5034812;28;20248;-62
2022/04/21 05:34:29;;;;;;;11.45;6.90;;;2.70;58.80;;;;;;5034819;28;20179;-62
2022/04/21 05:36:58;;;;;;;12.75;8.13;;;2.90;58.80;;;;;;5034566;28;20191;-62
2022/04/21 05:39:26;;;;;;;16.48;8.82;;;3.00;59.40;;;;;;5034870;28;20713;-63
2022/04/21 05:41:55;;;;;;;13.55;7.90;;;3.10;59.20;;;;;;5034548;28;20690;-62
2022/04/21 05:44:23;;;;;;;11.80;8.40;;;3.20;58.90;;;;;;5034062;28;20598;-63
2022/04/21 05:46:50;;;;;;;10.68;6.85;;;3.30;58.70;;;;;;5034738;28;20203;-63
2022/04/21 05:49:20;;;;;;;10.88;7.00;;;3.40;58.80;;;;;;5034590;28;20226;-63
2022/04/21 05:51:49;;;;;;;7.80;5.72;;;3.50;58.60;;;;;;5034033;28;20655;-63
2022/04/21 05:54:17;;;;;;;9.40;6.07;;;3.60;58.70;;;;;;5034644;28;20235;-62
2022/04/21 05:56:45;;;;;;;8.43;6.40;;;3.80;59.00;;;;;;5030726;28;20266;-62
2022/04/21 05:59:12;;;;;;;10.90;7.10;;;4.00;58.60;;;;;;5034701;28;20588;-63
2022/04/21 06:01:39;;;;;;;8.18;6.53;;;4.10;58.60;;;;;;5035035;28;20202;-62
2022/04/21 06:04:06;;;;;;;9.85;7.47;;;4.20;57.60;;;;;;5033281;28;20215;-62
2022/04/21 06:06:34;;;;;;;8.23;5.75;;;4.30;57.60;;;;;;5034567;28;20282;-62
2022/04/21 06:09:01;;;;;;;8.80;7.50;;;4.40;57.30;;;;;;5034239;28;20593;-62
2022/04/21 06:11:28;;;;;;;9.00;6.50;;;4.40;57.50;;;;;;5034073;28;20277;-63
2022/04/21 06:13:55;;;;;;;8.30;6.10;;;4.50;57.40;;;;;;5032138;28;20206;-63
2022/04/21 06:16:22;;;;;;;10.38;7.03;;;4.70;57.50;;;;;;5033623;28;20601;-63
2022/04/21 06:18:50;;;;;;;10.98;7.18;;;4.80;57.30;;;;;;5034223;28;20293;-63
2022/04/21 06:21:17;;;;;;;9.90;7.47;;;4.90;56.90;;;;;;5033453;28;20191;-63
2022/04/21 06:23:47;;;;;;;9.45;7.05;;;5.10;56.60;;;;;;5033405;28;20183;-63
2022/04/21 06:26:15;;;;;;;10.93;7.57;;;5.20;57.00;;;;;;5033780;28;20187;-63
2022/04/21 06:28:42;;;;;;;9.68;7.05;;;5.40;57.50;;;;;;5032647;28;20191;-62
2022/04/21 06:31:09;;;;;;;13.18;7.15;;;5.60;57.20;;;;;;5033736;28;20195;-62
2022/04/21 06:33:36;;;;;;;13.30;7.43;;;5.80;57.10;;;;;;5033918;28;20184;-63
2022/04/21 06:36:06;;;;;;;10.27;7.30;;;6.00;56.80;;;;;;5034586;28;20611;-62
2022/04/21 06:38:33;;;;;;;11.48;6.40;;;6.20;56.60;;;;;;5034345;28;20650;-62
2022/04/21 06:41:02;;;;;;;8.55;6.60;;;6.40;56.60;;;;;;5034074;28;20681;-62
2022/04/21 06:48:57;;;;;;;7.35;6.18;;;7.00;55.10;;;;;;5034138;28;20202;-63
2022/04/21 06:51:25;;;;;;;9.88;7.10;;;7.20;54.90;;;;;;5033967;28;20237;-63
2022/04/21 06:53:52;;;;;;;9.23;6.57;;;7.30;54.60;;;;;;5033983;28;20191;-62
2022/04/21 06:56:21;;;;;;;10.30;6.50;;;7.50;54.30;;;;;;5033735;28;20191;-62
2022/04/21 06:58:48;;;;;;;8.95;6.15;;;7.60;53.60;;;;;;5034105;28;20290;-64
2022/04/21 07:01:14;;;;;;;9.15;6.60;;;7.80;53.80;;;;;;5033775;28;20293;-64
2022/04/21 07:03:41;;;;;;;8.93;6.80;;;7.90;53.50;;;;;;5033954;28;20278;-62
2022/04/21 07:06:09;;;;;;;9.55;6.35;;;8.10;52.90;;;;;;5033917;28;20194;-63
2022/04/21 07:08:36;;;;;;;7.32;6.20;;;8.30;52.90;;;;;;5033950;28;20266;-62
2022/04/21 07:11:04;;;;;;;7.55;6.05;;;8.50;52.60;;;;;;5033941;28;20190;-63
2022/04/21 07:13:32;;;;;;;8.35;6.40;;;8.60;52.20;;;;;;5033842;28;20192;-63
2022/04/21 07:15:59;;;;;;;9.35;6.00;;;8.80;52.00;;;;;;5033666;28;20203;-63
2022/04/21 07:18:26;;;;;;;13.38;6.60;;;9.00;51.90;;;;;;5033222;28;20281;-63
2022/04/21 07:20:53;;;;;;;8.45;7.20;;;9.20;51.70;;;;;;5033586;28;20277;-63
2022/04/21 07:23:23;;;;;;;8.05;6.28;;;9.30;51.10;;;;;;5033382;28;20195;-63
2022/04/21 07:25:50;;;;;;;8.15;5.32;;;9.60;51.60;;;;;;5033341;28;20572;-63
2022/04/21 07:28:17;;;;;;;9.85;6.43;;;9.70;50.50;;;;;;5033618;28;20281;-62
2022/04/21 07:30:46;;;;;;;6.18;5.57;;;10.00;49.50;;;;;;5033667;28;20281;-64
2022/04/21 07:33:14;;;;;;;7.28;6.50;;;10.20;50.30;;;;;;5033366;28;20592;-64
2022/04/21 07:35:42;;;;;;;10.90;7.03;;;10.50;50.30;;;;;;5033564;28;20199;-63
2022/04/21 07:38:09;;;;;;;8.88;6.07;;;10.70;49.30;;;;;;5032859;28;20591;-64
2022/04/21 07:40:38;;;;;;;9.05;6.75;;;11.00;50.80;;;;;;5032903;28;20654;-63
2022/04/21 07:43:08;;;;;;;9.57;6.47;;;11.30;51.30;;;;;;5033008;28;20286;-62
2022/04/21 07:45:35;;;;;;;8.65;6.13;;;11.50;50.50;;;;;;5033287;28;20230;-62
2022/04/21 07:48:03;;;;;;;9.27;6.55;;;11.80;49.00;;;;;;5033199;28;20202;-63
2022/04/21 07:50:30;;;;;;;7.97;6.20;;;12.00;47.80;;;;;;5033158;28;20620;-63
2022/04/21 07:53:15;;;;;;;7.68;6.45;;;12.30;49.20;;;;;;5033017;28;20713;-63
2022/04/21 07:55:44;;;;;;;7.35;6.07;;;12.60;48.40;;;;;;5033235;28;20230;-63
2022/04/21 07:58:11;;;;;;;7.05;6.35;;;12.90;48.20;;;;;;5033205;28;20248;-63
2022/04/21 08:00:38;;;;;;;8.23;6.43;;;13.20;47.10;;;;;;5032950;28;20253;-63
2022/04/21 08:03:08;;;;;;;7.03;6.28;;;13.50;46.50;;;;;;5033095;28;20190;-63
2022/04/21 08:05:35;;;;;;;7.97;5.73;;;13.90;45.50;;;;;;5032930;28;20631;-63
2022/04/21 08:08:03;;;;;;;9.80;5.68;;;14.10;45.50;;;;;;5029188;28;20477;-63
2022/04/21 08:10:30;;;;;;;8.65;6.68;;;14.40;44.70;;;;;;5027546;28;20202;-63
2022/04/21 08:12:59;;;;;;;7.97;6.63;;;14.80;45.00;;;;;;5031611;28;20502;-63
2022/04/21 08:15:28;;;;;;;7.17;5.40;;;15.10;43.80;;;;;;5031650;28;20434;-63
2022/04/21 08:17:56;;;;;;;13.17;7.43;;;15.40;43.00;;;;;;5031494;28;20446;-63
2022/04/21 08:20:26;;;;;;;8.10;5.77;;;15.70;42.60;;;;;;5031324;28;20472;-63
2022/04/21 08:22:53;;;;;;;7.77;7.00;;;16.00;38.00;;;;;;5031497;28;20532;-64
2022/04/21 08:33:34;;;;;;;8.10;6.10;;;17.30;38.50;;;;;;5029912;28;20939;-63
2022/04/21 08:36:03;;;;;;;7.80;6.67;;;17.40;35.30;;;;;;5030951;28;20504;-64
2022/04/21 08:38:31;;;;;;;8.43;5.70;;;17.60;36.60;;;;;;5031578;28;20524;-64
2022/04/21 08:41:00;;;;;;;8.90;7.53;;;17.90;36.80;;;;;;5030007;28;20474;-64
2022/04/21 08:43:29;;;;;;;6.70;6.00;;;18.20;35.50;;;;;;5030710;28;20457;-61
2022/04/21 08:45:56;;;;;;;8.23;6.90;;;18.40;33.60;;;;;;5030633;28;20503;-64
2022/04/21 08:48:25;;;;;;;7.03;6.30;;;18.60;33.30;;;;;;5030923;28;20905;-66
2022/04/21 08:50:53;;;;;;;8.87;6.67;;;18.80;32.70;;;;;;5030451;28;20945;-63
2022/04/21 08:53:23;;;;;;;8.53;6.57;;;19.00;30.00;;;;;;5033398;28;20758;-63
2022/04/21 08:55:52;;;;;;;6.50;5.50;;;19.20;30.50;;;;;;5035139;28;20446;-64
2022/04/21 08:58:19;;;;;;;8.20;5.60;;;19.50;30.70;;;;;;5035097;28;20812;-62
2022/04/21 09:00:46;;;;;;;8.50;6.30;;;19.80;30.70;;;;;;5034437;28;20484;-64
2022/04/21 09:03:14;;;;;;;6.57;5.50;;;19.90;28.60;;;;;;5035307;28;20438;-62
2022/04/21 09:05:41;;;;;;;9.13;6.33;;;20.00;27.90;;;;;;5035014;28;20485;-61
2022/04/21 09:08:19;;;;;;;6.47;5.77;;;20.10;27.80;;;;;;5034981;28;20468;-62
2022/04/21 09:11:01;;;;;;;8.97;5.20;;;20.30;26.40;;;;;;5034564;28;20520;-62
2022/04/21 09:13:31;;;;;;;8.60;6.40;;;20.30;27.20;;;;;;5034142;28;20498;-61
2022/04/21 09:16:03;;;;;;;7.17;5.00;;;20.40;26.20;;;;;;5034781;28;20459;-61
2022/04/21 09:18:37;;;;;;;6.70;5.30;;;20.70;26.50;;;;;;5030792;28;20434;-62
2022/04/21 09:21:07;;;;;;;7.50;5.90;;;20.70;24.80;;;;;;5031567;28;20437;-61
2022/04/21 09:23:34;;;;;;;7.17;5.30;;;20.50;24.50;;;;;;5034318;28;20449;-62
2022/04/21 09:26:13;;;;;;;9.43;5.83;;;20.40;25.90;;;;;;5034497;28;20511;-62
2022/04/21 09:28:40;;;;;;;10.30;6.20;;;20.60;25.90;;;;;;5033506;28;20995;-62
2022/04/21 09:31:08;;;;;;;6.83;5.70;;;20.80;25.50;;;;;;5033647;28;20446;-62
2022/04/21 09:33:37;;;;;;;7.20;5.13;;;20.90;24.40;;;;;;5033587;28;20469;-62
2022/04/21 09:36:06;;;;;;;7.47;5.67;;;20.90;23.40;;;;;;5033988;28;20910;-62
2022/04/21 09:38:34;;;;;;;7.30;5.30;;;20.70;24.00;;;;;;5031571;28;20445;-62
2022/04/21 09:41:10;;;;;;;9.67;6.00;;;20.70;23.70;;;;;;5033751;28;20474;-62
2022/04/21 09:43:38;;;;;;;8.50;6.03;;;20.80;24.00;;;;;;5032051;28;20465;-61
2022/04/21 09:46:12;;;;;;;9.23;5.30;;;21.10;23.50;;;;;;5034189;28;20488;-61
2022/04/21 09:48:39;;;;;;;7.97;6.23;;;21.10;23.90;;;;;;5032042;28;20438;-62
2022/04/21 09:51:12;;;;;;;7.20;5.87;;;21.10;21.80;;;;;;5033873;28;20549;-62
2022/04/21 09:53:57;;;;;;;7.80;5.90;;;21.10;22.50;;;;;;5031862;28;20500;-62
2022/04/21 09:56:35;;;;;;;8.73;5.47;;;21.00;24.70;;;;;;5034137;28;20437;-61
2022/04/21 09:59:03;;;;;;;7.10;5.80;;;20.90;23.40;;;;;;5033717;28;20491;-61
2022/04/21 10:01:30;;;;;;;7.07;5.07;;;20.90;22.40;;;;;;5033696;28;20908;-62
2022/04/21 10:03:58;;;;;;;7.60;5.90;;;20.80;23.70;;;;;;5033993;28;20438;-62
2022/04/21 10:06:25;;;;;;;7.23;5.57;;;20.80;24.60;;;;;;5034006;28;21045;-62
2022/04/21 10:08:52;;;;;;;7.60;6.07;;;20.90;24.00;;;;;;5033464;28;20445;-62
2022/04/21 10:11:23;;;;;;;7.37;5.13;;;20.90;23.70;;;;;;5033383;28;20998;-62
2022/04/21 10:13:54;;;;;;;6.63;4.77;;;21.00;24.30;;;;;;5033627;28;20450;-61
2022/04/21 10:16:21;;;;;;;7.53;5.10;;;21.20;24.20;;;;;;5033653;28;20449;-62
2022/04/21 10:18:51;;;;;;;6.70;5.23;;;21.30;22.90;;;;;;5033633;28;20532;-62
2022/04/21 10:21:25;;;;;;;9.93;5.20;;;21.40;23.00;;;;;;5029619;28;20525;-62
2022/04/21 10:23:52;;;;;;;7.87;5.40;;;21.40;23.50;;;;;;5033446;28;20437;-62
2022/04/21 10:26:36;;;;;;;5.83;4.50;;;21.30;23.10;;;;;;5033291;28;20975;-62
2022/04/21 10:29:12;;;;;;;7.20;5.90;;;21.30;23.90;;;;;;5031618;28;20442;-62
2022/04/21 10:31:48;;;;;;;7.80;5.67;;;21.50;24.00;;;;;;5033092;28;20453;-62
2022/04/21 10:34:36;;;;;;;7.00;5.50;;;21.60;25.00;;;;;;5033007;28;20515;-62
2022/04/21 10:37:09;;;;;;;5.93;5.20;;;21.70;23.50;;;;;;5014588;28;20474;-61
2022/04/21 10:39:37;;;;;;;6.87;5.13;;;21.60;23.30;;;;;;5014575;28;20522;-62
2022/04/21 10:42:11;;;;;;;5.77;5.03;;;21.60;24.20;;;;;;5014463;28;20466;-61
2022/04/21 10:44:45;;;;;;;7.40;5.37;;;21.70;24.70;;;;;;5014460;28;20786;-61
2022/04/21 10:47:38;;;;;;;7.13;5.23;;;21.50;22.40;;;;;;5014498;28;20482;-62
2022/04/21 10:50:16;;;;;;;6.87;5.70;;;21.20;22.40;;;;;;5014654;28;20871;-63
2022/04/21 10:58:52;;;;;;;7.63;5.13;;;21.40;24.00;;;;;;5014417;28;20418;-62
2022/04/21 11:01:33;;;;;;;8.60;5.53;;;21.50;23.40;;;;;;5014107;28;20534;-62
2022/04/21 11:04:10;;;;;;;5.37;4.50;;;21.50;23.70;;;;;;5014265;28;20443;-62
2022/04/21 11:06:45;;;;;;;6.40;5.03;;;21.60;24.00;;;;;;5033322;28;20472;-61
2022/04/21 11:09:53;;;;;;;7.10;5.23;;;21.70;23.40;;;;;;5033885;28;20502;-61
2022/04/21 11:12:49;;;;;;;8.40;5.50;;;21.80;24.60;;;;;;5033065;28;20449;-62
2022/04/21 11:15:39;;;;;;;7.00;4.90;;;21.80;23.80;;;;;;5033309;28;20441;-62
2022/04/21 11:18:12;;;;;;;6.40;4.60;;;21.80;23.20;;;;;;5033026;28;20935;-61
2022/04/21 11:20:40;;;;;;;5.50;4.30;;;21.90;24.00;;;;;;5025912;28;20446;-61
2022/04/21 11:23:09;;;;;;;7.57;6.03;;;21.90;22.90;;;;;;5030984;28;20438;-61
2022/04/21 11:25:36;;;;;;;8.30;5.20;;;22.00;22.40;;;;;;5032803;28;20514;-61
2022/04/21 11:28:03;;;;;;;6.53;5.10;;;22.00;21.70;;;;;;5032076;28;20948;-61
2022/04/21 11:30:31;;;;;;;6.30;4.63;;;22.10;22.80;;;;;;5033392;28;20442;-62
2022/04/21 11:32:58;;;;;;;6.23;4.70;;;22.00;21.90;;;;;;5032681;28;20442;-61
2022/04/21 11:35:27;;;;;;;5.20;4.40;;;22.00;22.80;;;;;;5033319;28;20437;-61
2022/04/21 11:37:55;;;;;;;5.10;4.23;;;22.10;23.30;;;;;;5032157;28;20442;-62
2022/04/21 11:40:29;;;;;;;8.40;5.17;;;22.00;22.40;;;;;;5033206;28;20516;-63
2022/04/21 11:42:59;;;;;;;7.00;5.03;;;21.90;22.80;;;;;;5033427;28;20773;-62
2022/04/21 11:45:27;;;;;;;12.00;5.20;;;22.00;22.80;;;;;;5032787;28;20856;-62
2022/04/21 11:47:55;;;;;;;5.97;4.10;;;22.10;22.40;;;;;;5032896;28;20441;-62
2022/04/21 11:50:23;;;;;;;5.93;4.67;;;22.20;23.50;;;;;;5032830;28;20469;-62
2022/04/21 11:52:53;;;;;;;5.77;4.77;;;22.20;21.40;;;;;;5031134;28;20472;-62
2022/04/21 11:55:26;;;;;;;5.40;4.70;;;22.10;21.00;;;;;;5032746;28;20477;-62
2022/04/21 11:57:53;;;;;;;5.43;4.20;;;21.70;21.10;;;;;;5032834;28;20526;-62
2022/04/21 12:08:44;;;;;;;7.43;4.80;;;21.50;21.70;;;;;;5032940;28;20465;-62
2022/04/21 12:11:11;;;;;;;8.70;4.67;;;21.50;21.50;;;;;;5032686;28;20485;-61
2022/04/21 12:13:38;;;;;;;6.27;4.20;;;21.50;20.80;;;;;;5032658;28;21003;-62
2022/04/21 12:16:06;;;;;;;10.50;4.27;;;21.40;20.70;;;;;;5032839;28;20434;-61
2022/04/21 12:18:48;;;;;;;5.80;4.40;;;21.40;21.70;;;;;;5032685;28;21014;-61
2022/04/21 12:21:19;;;;;;;6.00;4.30;;;21.10;21.60;;;;;;5032417;28;20484;-62
2022/04/21 12:23:47;;;;;;;5.13;3.90;;;21.00;20.10;;;;;;5033001;28;20442;-62
2022/04/21 12:26:14;;;;;;;5.30;3.53;;;20.90;22.20;;;;;;5034099;28;20505;-63
2022/04/21 12:28:48;;;;;;;7.37;4.80;;;20.80;21.60;;;;;;5036682;28;20442;-63
2022/04/21 12:31:19;;;;;;;5.77;4.20;;;20.80;20.30;;;;;;5036695;28;20439;-61
2022/04/21 12:33:50;;;;;;;5.70;4.10;;;20.80;21.60;;;;;;5036905;28;20912;-62
2022/04/21 12:36:27;;;;;;;5.90;3.57;;;21.00;22.80;;;;;;5037014;28;20473;-62
2022/04/21 12:39:01;;;;;;;4.90;3.00;;;21.10;22.90;;;;;;5036795;28;20437;-62
2022/04/21 12:41:29;;;;;;;4.57;3.80;;;21.30;22.20;;;;;;5036344;28;20460;-62
2022/04/21 12:43:57;;;;;;;4.43;3.47;;;21.20;20.50;;;;;;5036497;28;20478;-62
2022/04/21 12:46:27;;;;;;;7.20;5.40;;;21.10;21.00;;;;;;5036722;28;20840;-62
2022/04/21 12:48:54;;;;;;;7.30;4.07;;;21.10;20.40;;;;;;5036440;28;20963;-62
2022/04/21 12:51:22;;;;;;;5.10;3.70;;;21.10;22.10;;;;;;5036340;28;20448;-62
2022/04/21 12:53:56;;;;;;;3.97;2.97;;;21.10;23.30;;;;;;5036504;28;20495;-62
2022/04/21 12:56:34;;;;;;;4.80;4.23;;;21.10;21.90;;;;;;5036190;28;20444;-62
2022/04/21 12:59:02;;;;;;;4.40;3.50;;;20.80;20.80;;;;;;5036389;28;20441;-61
2022/04/21 13:01:29;;;;;;;5.00;4.07;;;20.70;23.20;;;;;;5036428;28;20795;-66
2022/04/21 13:03:58;;;;;;;6.53;3.60;;;20.70;21.60;;;;;;5036198;28;20448;-62
2022/04/21 13:06:27;;;;;;;4.77;3.60;;;20.70;21.80;;;;;;5036225;28;20485;-61
2022/04/21 13:08:54;;;;;;;3.80;2.80;;;20.70;22.60;;;;;;5035856;28;20430;-62
2022/04/21 13:11:21;;;;;;;4.90;3.83;;;20.80;22.40;;;;;;5035857;28;20543;-62
2022/04/21 13:13:50;;;;;;;3.50;2.60;;;20.90;22.20;;;;;;5035722;28;20525;-62
2022/04/21 13:16:17;;;;;;;4.80;3.37;;;20.90;21.20;;;;;;5036041;28;20442;-62
2022/04/21 13:18:44;;;;;;;4.10;3.37;;;20.90;22.00;;;;;;5035991;28;20441;-64
2022/04/21 13:23:56;;;;;;;8.00;4.47;;;20.80;22.90;;;;;;5035724;28;20773;-62
2022/04/21 13:26:28;;;;;;;8.47;4.30;;;20.80;22.80;;;;;;5035789;28;20477;-61
2022/04/21 13:28:57;;;;;;;5.10;3.77;;;20.80;22.70;;;;;;5035934;28;20781;-61
2022/04/21 13:34:10;;;;;;;3.23;2.90;;;20.60;23.00;;;;;;5035885;28;20561;-61
2022/04/21 13:36:38;;;;;;;5.80;3.83;;;20.50;23.60;;;;;;5034938;28;20446;-61
2022/04/21 13:39:05;;;;;;;6.30;4.10;;;20.60;23.40;;;;;;5034936;28;20940;-62
2022/04/21 13:41:31;;;;;;;4.50;3.50;;;20.50;23.60;;;;;;5035303;28;20473;-61
2022/04/21 13:44:00;;;;;;;6.37;3.37;;;20.50;22.90;;;;;;5035317;28;20445;-62
2022/04/21 13:46:28;;;;;;;7.37;4.20;;;20.40;23.20;;;;;;5035490;28;20770;-61
2022/04/21 13:48:56;;;;;;;4.40;3.43;;;20.40;23.00;;;;;;5035387;28;20438;-62
2022/04/21 13:51:23;;;;;;;4.50;3.63;;;20.30;22.40;;;;;;5035191;28;20955;-61
2022/04/21 13:53:50;;;;;;;5.00;3.90;;;20.30;22.40;;;;;;5030749;28;20453;-62
2022/04/21 13:56:17;;;;;;;4.73;3.33;;;20.20;22.30;;;;;;5034050;28;20928;-61